sensor_id;sensor_type;location;lat;lon;timestamp;P1;durP1;ratioP1;P2;durP2;ratioP2
47429;SDS011;33181;49.246;7.372;2023-08-12T00:01:25;10.93;;;6.60;;
47429;SDS011;33181;49.246;7.372;2023-08-12T00:03:51;10.73;;;6.40;;
47429;SDS011;33181;49.246;7.372;2023-08-12T00:06:17;7.77;;;6.60;;
47429;SDS011;33181;49.246;7.372;2023-08-12T00:08:42;10.83;;;6.53;;
47429;SDS011;33181;49.246;7.372;2023-08-12T00:11:08;11.10;;;6.47;;
47429;SDS011;33181;49.246;7.372;2023-08-12T00:13:34;9.33;;;6.70;;
47429;SDS011;33181;49.246;7.372;2023-08-12T00:16:00;8.50;;;6.07;;
47429;SDS011;33181;49.246;7.372;2023-08-12T00:18:26;7.50;;;6.37;;
47429;SDS011;33181;49.246;7.372;2023-08-12T00:20:51;9.70;;;6.33;;
47429;SDS011;33181;49.246;7.372;2023-08-12T00:23:17;10.23;;;6.07;;
47429;SDS011;33181;49.246;7.372;2023-08-12T00:25:43;7.50;;;6.03;;
47429;SDS011;33181;49.246;7.372;2023-08-12T00:28:09;9.63;;;5.93;;
47429;SDS011;33181;49.246;7.372;2023-08-12T00:30:35;8.67;;;6.00;;
47429;SDS011;33181;49.246;7.372;2023-08-12T00:33:01;7.33;;;6.30;;
47429;SDS011;33181;49.246;7.372;2023-08-12T00:35:27;8.40;;;5.63;;
47429;SDS011;33181;49.246;7.372;2023-08-12T00:37:52;8.33;;;6.33;;
47429;SDS011;33181;49.246;7.372;2023-08-12T00:40:18;9.10;;;6.97;;
47429;SDS011;33181;49.246;7.372;2023-08-12T00:42:44;8.67;;;7.03;;
47429;SDS011;33181;49.246;7.372;2023-08-12T00:45:11;7.50;;;6.60;;
47429;SDS011;33181;49.246;7.372;2023-08-12T00:47:38;13.60;;;6.50;;
47429;SDS011;33181;49.246;7.372;2023-08-12T00:50:08;8.67;;;6.60;;
47429;SDS011;33181;49.246;7.372;2023-08-12T00:52:37;8.53;;;6.50;;
47429;SDS011;33181;49.246;7.372;2023-08-12T00:55:03;8.10;;;6.77;;
47429;SDS011;33181;49.246;7.372;2023-08-12T00:57:29;11.20;;;6.70;;
47429;SDS011;33181;49.246;7.372;2023-08-12T00:59:55;7.83;;;6.50;;
47429;SDS011;33181;49.246;7.372;2023-08-12T01:02:22;12.10;;;7.40;;
47429;SDS011;33181;49.246;7.372;2023-08-12T01:04:47;9.63;;;6.70;;
47429;SDS011;33181;49.246;7.372;2023-08-12T01:07:13;11.17;;;6.40;;
47429;SDS011;33181;49.246;7.372;2023-08-12T01:09:39;8.30;;;6.50;;
47429;SDS011;33181;49.246;7.372;2023-08-12T01:12:06;8.33;;;6.60;;
47429;SDS011;33181;49.246;7.372;2023-08-12T01:14:42;10.50;;;7.10;;
47429;SDS011;33181;49.246;7.372;2023-08-12T01:17:31;8.83;;;6.67;;
47429;SDS011;33181;49.246;7.372;2023-08-12T01:20:01;7.53;;;6.40;;
47429;SDS011;33181;49.246;7.372;2023-08-12T01:22:33;12.33;;;7.67;;
47429;SDS011;33181;49.246;7.372;2023-08-12T01:25:04;11.53;;;8.10;;
47429;SDS011;33181;49.246;7.372;2023-08-12T01:27:31;9.03;;;7.20;;
47429;SDS011;33181;49.246;7.372;2023-08-12T01:30:01;12.10;;;7.40;;
47429;SDS011;33181;49.246;7.372;2023-08-12T01:32:42;11.40;;;7.97;;
47429;SDS011;33181;49.246;7.372;2023-08-12T01:35:39;10.70;;;8.17;;
47429;SDS011;33181;49.246;7.372;2023-08-12T01:38:11;12.50;;;8.40;;
47429;SDS011;33181;49.246;7.372;2023-08-12T01:40:38;12.63;;;8.93;;
47429;SDS011;33181;49.246;7.372;2023-08-12T01:43:05;11.30;;;8.50;;
47429;SDS011;33181;49.246;7.372;2023-08-12T01:45:33;11.90;;;9.00;;
47429;SDS011;33181;49.246;7.372;2023-08-12T01:47:59;13.90;;;9.33;;
47429;SDS011;33181;49.246;7.372;2023-08-12T01:50:27;11.30;;;9.10;;
47429;SDS011;33181;49.246;7.372;2023-08-12T01:52:53;10.50;;;9.07;;
47429;SDS011;33181;49.246;7.372;2023-08-12T01:55:19;11.40;;;9.23;;
47429;SDS011;33181;49.246;7.372;2023-08-12T01:57:45;14.40;;;9.13;;
47429;SDS011;33181;49.246;7.372;2023-08-12T02:00:11;12.63;;;9.80;;
47429;SDS011;33181;49.246;7.372;2023-08-12T02:02:36;15.33;;;10.20;;
47429;SDS011;33181;49.246;7.372;2023-08-12T02:05:02;13.50;;;9.60;;
47429;SDS011;33181;49.246;7.372;2023-08-12T02:07:28;11.43;;;9.67;;
47429;SDS011;33181;49.246;7.372;2023-08-12T02:09:54;13.20;;;9.97;;
47429;SDS011;33181;49.246;7.372;2023-08-12T02:12:20;16.70;;;10.70;;
47429;SDS011;33181;49.246;7.372;2023-08-12T02:14:45;10.83;;;8.97;;
47429;SDS011;33181;49.246;7.372;2023-08-12T02:17:11;12.40;;;10.30;;
47429;SDS011;33181;49.246;7.372;2023-08-12T02:19:37;10.73;;;9.10;;
47429;SDS011;33181;49.246;7.372;2023-08-12T02:22:03;10.77;;;9.67;;
47429;SDS011;33181;49.246;7.372;2023-08-12T02:24:30;12.00;;;9.00;;
47429;SDS011;33181;49.246;7.372;2023-08-12T02:26:55;12.70;;;9.57;;
47429;SDS011;33181;49.246;7.372;2023-08-12T02:29:21;14.27;;;10.67;;
47429;SDS011;33181;49.246;7.372;2023-08-12T02:31:47;12.10;;;9.97;;
47429;SDS011;33181;49.246;7.372;2023-08-12T02:34:13;16.60;;;11.20;;
47429;SDS011;33181;49.246;7.372;2023-08-12T02:36:39;12.67;;;9.50;;
47429;SDS011;33181;49.246;7.372;2023-08-12T02:39:04;11.80;;;9.10;;
47429;SDS011;33181;49.246;7.372;2023-08-12T02:41:30;13.63;;;9.27;;
47429;SDS011;33181;49.246;7.372;2023-08-12T02:43:56;10.93;;;8.60;;
47429;SDS011;33181;49.246;7.372;2023-08-12T02:46:22;11.53;;;9.33;;
47429;SDS011;33181;49.246;7.372;2023-08-12T02:48:50;17.80;;;10.30;;
47429;SDS011;33181;49.246;7.372;2023-08-12T02:51:15;12.20;;;9.70;;
47429;SDS011;33181;49.246;7.372;2023-08-12T02:53:41;9.97;;;8.60;;
47429;SDS011;33181;49.246;7.372;2023-08-12T02:56:07;12.53;;;8.87;;
47429;SDS011;33181;49.246;7.372;2023-08-12T02:58:33;12.40;;;9.70;;
47429;SDS011;33181;49.246;7.372;2023-08-12T03:00:59;11.17;;;8.60;;
47429;SDS011;33181;49.246;7.372;2023-08-12T03:03:25;9.63;;;8.63;;
47429;SDS011;33181;49.246;7.372;2023-08-12T03:05:50;17.10;;;9.77;;
47429;SDS011;33181;49.246;7.372;2023-08-12T03:08:16;10.70;;;8.50;;
47429;SDS011;33181;49.246;7.372;2023-08-12T03:10:42;11.50;;;8.93;;
47429;SDS011;33181;49.246;7.372;2023-08-12T03:13:10;12.10;;;8.97;;
47429;SDS011;33181;49.246;7.372;2023-08-12T03:15:39;9.70;;;8.70;;
47429;SDS011;33181;49.246;7.372;2023-08-12T03:18:05;13.87;;;8.93;;
47429;SDS011;33181;49.246;7.372;2023-08-12T03:20:31;13.60;;;10.60;;
47429;SDS011;33181;49.246;7.372;2023-08-12T03:22:56;12.37;;;9.60;;
47429;SDS011;33181;49.246;7.372;2023-08-12T03:25:22;13.40;;;9.43;;
47429;SDS011;33181;49.246;7.372;2023-08-12T03:27:48;13.07;;;9.10;;
47429;SDS011;33181;49.246;7.372;2023-08-12T03:30:14;13.10;;;9.77;;
47429;SDS011;33181;49.246;7.372;2023-08-12T03:32:39;11.93;;;8.63;;
47429;SDS011;33181;49.246;7.372;2023-08-12T03:35:05;9.83;;;8.70;;
47429;SDS011;33181;49.246;7.372;2023-08-12T03:37:31;10.40;;;8.50;;
47429;SDS011;33181;49.246;7.372;2023-08-12T03:39:57;12.27;;;9.17;;
47429;SDS011;33181;49.246;7.372;2023-08-12T03:42:23;10.63;;;8.00;;
47429;SDS011;33181;49.246;7.372;2023-08-12T03:44:48;10.63;;;8.80;;
47429;SDS011;33181;49.246;7.372;2023-08-12T03:47:14;9.93;;;8.90;;
47429;SDS011;33181;49.246;7.372;2023-08-12T03:49:40;10.33;;;8.83;;
47429;SDS011;33181;49.246;7.372;2023-08-12T03:52:05;11.23;;;8.57;;
47429;SDS011;33181;49.246;7.372;2023-08-12T03:54:32;11.10;;;9.00;;
47429;SDS011;33181;49.246;7.372;2023-08-12T03:56:58;11.70;;;9.60;;
47429;SDS011;33181;49.246;7.372;2023-08-12T03:59:24;13.73;;;9.93;;
47429;SDS011;33181;49.246;7.372;2023-08-12T04:01:51;12.30;;;10.00;;
47429;SDS011;33181;49.246;7.372;2023-08-12T04:04:17;13.00;;;9.50;;
47429;SDS011;33181;49.246;7.372;2023-08-12T04:06:42;10.37;;;8.50;;
47429;SDS011;33181;49.246;7.372;2023-08-12T04:09:08;9.90;;;8.80;;
47429;SDS011;33181;49.246;7.372;2023-08-12T04:11:34;9.37;;;8.40;;
47429;SDS011;33181;49.246;7.372;2023-08-12T04:14:00;10.73;;;9.07;;
47429;SDS011;33181;49.246;7.372;2023-08-12T04:16:26;11.17;;;7.97;;
47429;SDS011;33181;49.246;7.372;2023-08-12T04:18:51;9.47;;;8.47;;
47429;SDS011;33181;49.246;7.372;2023-08-12T04:21:17;11.70;;;8.97;;
47429;SDS011;33181;49.246;7.372;2023-08-12T04:23:43;13.23;;;9.30;;
47429;SDS011;33181;49.246;7.372;2023-08-12T04:26:08;11.10;;;9.87;;
47429;SDS011;33181;49.246;7.372;2023-08-12T04:28:34;11.13;;;9.50;;
47429;SDS011;33181;49.246;7.372;2023-08-12T04:31:00;13.43;;;9.57;;
47429;SDS011;33181;49.246;7.372;2023-08-12T04:33:25;11.73;;;9.50;;
47429;SDS011;33181;49.246;7.372;2023-08-12T04:35:52;11.37;;;9.30;;
47429;SDS011;33181;49.246;7.372;2023-08-12T04:38:19;10.77;;;9.33;;
47429;SDS011;33181;49.246;7.372;2023-08-12T04:40:44;12.40;;;10.27;;
47429;SDS011;33181;49.246;7.372;2023-08-12T04:43:10;11.27;;;9.27;;
47429;SDS011;33181;49.246;7.372;2023-08-12T04:45:38;10.33;;;9.13;;
47429;SDS011;33181;49.246;7.372;2023-08-12T04:48:04;13.53;;;9.70;;
47429;SDS011;33181;49.246;7.372;2023-08-12T04:50:31;11.80;;;9.90;;
47429;SDS011;33181;49.246;7.372;2023-08-12T04:52:59;11.70;;;9.43;;
47429;SDS011;33181;49.246;7.372;2023-08-12T04:55:25;13.37;;;9.33;;
47429;SDS011;33181;49.246;7.372;2023-08-12T04:57:51;9.13;;;8.10;;
47429;SDS011;33181;49.246;7.372;2023-08-12T05:00:17;11.10;;;9.50;;
47429;SDS011;33181;49.246;7.372;2023-08-12T05:02:43;12.77;;;10.20;;
47429;SDS011;33181;49.246;7.372;2023-08-12T05:05:09;14.93;;;10.30;;
47429;SDS011;33181;49.246;7.372;2023-08-12T05:07:35;11.40;;;9.17;;
47429;SDS011;33181;49.246;7.372;2023-08-12T05:10:01;10.90;;;8.83;;
47429;SDS011;33181;49.246;7.372;2023-08-12T05:12:27;12.37;;;9.20;;
47429;SDS011;33181;49.246;7.372;2023-08-12T05:14:53;10.47;;;8.70;;
47429;SDS011;33181;49.246;7.372;2023-08-12T05:17:19;11.37;;;8.90;;
47429;SDS011;33181;49.246;7.372;2023-08-12T05:19:44;10.97;;;8.77;;
47429;SDS011;33181;49.246;7.372;2023-08-12T05:22:10;11.47;;;9.23;;
47429;SDS011;33181;49.246;7.372;2023-08-12T05:24:36;12.40;;;9.57;;
47429;SDS011;33181;49.246;7.372;2023-08-12T05:27:02;11.20;;;8.87;;
47429;SDS011;33181;49.246;7.372;2023-08-12T05:29:29;10.80;;;8.47;;
47429;SDS011;33181;49.246;7.372;2023-08-12T05:31:55;12.43;;;8.63;;
47429;SDS011;33181;49.246;7.372;2023-08-12T05:34:21;9.63;;;7.90;;
47429;SDS011;33181;49.246;7.372;2023-08-12T05:36:47;10.20;;;7.67;;
47429;SDS011;33181;49.246;7.372;2023-08-12T05:39:13;10.13;;;9.07;;
47429;SDS011;33181;49.246;7.372;2023-08-12T05:41:40;12.50;;;9.00;;
47429;SDS011;33181;49.246;7.372;2023-08-12T05:44:06;11.43;;;8.93;;
47429;SDS011;33181;49.246;7.372;2023-08-12T05:46:32;12.37;;;10.50;;
47429;SDS011;33181;49.246;7.372;2023-08-12T05:48:58;12.30;;;9.97;;
47429;SDS011;33181;49.246;7.372;2023-08-12T05:51:26;13.40;;;10.23;;
47429;SDS011;33181;49.246;7.372;2023-08-12T05:53:52;12.80;;;10.60;;
47429;SDS011;33181;49.246;7.372;2023-08-12T05:56:17;12.63;;;9.90;;
47429;SDS011;33181;49.246;7.372;2023-08-12T05:58:43;12.13;;;10.73;;
47429;SDS011;33181;49.246;7.372;2023-08-12T06:01:09;13.10;;;10.00;;
47429;SDS011;33181;49.246;7.372;2023-08-12T06:03:35;13.03;;;10.33;;
47429;SDS011;33181;49.246;7.372;2023-08-12T06:06:01;13.33;;;10.33;;
47429;SDS011;33181;49.246;7.372;2023-08-12T06:08:28;14.07;;;10.30;;
47429;SDS011;33181;49.246;7.372;2023-08-12T06:10:53;11.23;;;9.97;;
47429;SDS011;33181;49.246;7.372;2023-08-12T06:13:19;11.00;;;8.70;;
47429;SDS011;33181;49.246;7.372;2023-08-12T06:15:45;10.63;;;8.70;;
47429;SDS011;33181;49.246;7.372;2023-08-12T06:18:11;11.20;;;9.10;;
47429;SDS011;33181;49.246;7.372;2023-08-12T06:20:36;9.43;;;7.97;;
47429;SDS011;33181;49.246;7.372;2023-08-12T06:23:02;10.77;;;9.67;;
47429;SDS011;33181;49.246;7.372;2023-08-12T06:25:28;11.73;;;10.07;;
47429;SDS011;33181;49.246;7.372;2023-08-12T06:27:54;15.20;;;9.70;;
47429;SDS011;33181;49.246;7.372;2023-08-12T06:30:20;10.23;;;8.80;;
47429;SDS011;33181;49.246;7.372;2023-08-12T06:32:45;12.00;;;9.77;;
47429;SDS011;33181;49.246;7.372;2023-08-12T06:35:11;13.00;;;11.13;;
47429;SDS011;33181;49.246;7.372;2023-08-12T06:37:37;13.27;;;10.93;;
47429;SDS011;33181;49.246;7.372;2023-08-12T06:40:05;11.33;;;8.70;;
47429;SDS011;33181;49.246;7.372;2023-08-12T06:42:32;11.03;;;9.77;;
47429;SDS011;33181;49.246;7.372;2023-08-12T06:44:58;10.50;;;9.30;;
47429;SDS011;33181;49.246;7.372;2023-08-12T06:47:24;10.37;;;9.10;;
47429;SDS011;33181;49.246;7.372;2023-08-12T06:49:52;12.10;;;9.77;;
47429;SDS011;33181;49.246;7.372;2023-08-12T06:52:18;14.47;;;10.80;;
47429;SDS011;33181;49.246;7.372;2023-08-12T06:54:44;12.43;;;10.30;;
47429;SDS011;33181;49.246;7.372;2023-08-12T06:57:10;10.53;;;8.57;;
47429;SDS011;33181;49.246;7.372;2023-08-12T06:59:36;12.60;;;9.67;;
47429;SDS011;33181;49.246;7.372;2023-08-12T07:02:05;10.83;;;9.73;;
47429;SDS011;33181;49.246;7.372;2023-08-12T07:04:32;10.13;;;9.00;;
47429;SDS011;33181;49.246;7.372;2023-08-12T07:06:57;12.17;;;9.03;;
47429;SDS011;33181;49.246;7.372;2023-08-12T07:09:24;9.97;;;7.93;;
47429;SDS011;33181;49.246;7.372;2023-08-12T07:11:50;10.20;;;8.70;;
47429;SDS011;33181;49.246;7.372;2023-08-12T07:14:16;11.57;;;8.43;;
47429;SDS011;33181;49.246;7.372;2023-08-12T07:16:41;11.17;;;8.00;;
47429;SDS011;33181;49.246;7.372;2023-08-12T07:19:07;9.50;;;8.40;;
47429;SDS011;33181;49.246;7.372;2023-08-12T07:21:33;10.10;;;8.67;;
47429;SDS011;33181;49.246;7.372;2023-08-12T07:23:58;10.37;;;8.50;;
47429;SDS011;33181;49.246;7.372;2023-08-12T07:26:24;10.83;;;8.30;;
47429;SDS011;33181;49.246;7.372;2023-08-12T07:28:50;10.60;;;7.67;;
47429;SDS011;33181;49.246;7.372;2023-08-12T07:31:16;9.90;;;8.10;;
47429;SDS011;33181;49.246;7.372;2023-08-12T07:33:43;9.43;;;8.43;;
47429;SDS011;33181;49.246;7.372;2023-08-12T07:36:09;8.03;;;7.10;;
47429;SDS011;33181;49.246;7.372;2023-08-12T07:38:35;7.67;;;6.83;;
47429;SDS011;33181;49.246;7.372;2023-08-12T07:41:01;8.73;;;7.07;;
47429;SDS011;33181;49.246;7.372;2023-08-12T07:43:29;8.20;;;7.20;;
47429;SDS011;33181;49.246;7.372;2023-08-12T07:45:55;10.57;;;7.10;;
47429;SDS011;33181;49.246;7.372;2023-08-12T07:48:20;11.50;;;7.63;;
47429;SDS011;33181;49.246;7.372;2023-08-12T07:50:46;13.20;;;7.43;;
47429;SDS011;33181;49.246;7.372;2023-08-12T07:53:15;10.57;;;6.90;;
47429;SDS011;33181;49.246;7.372;2023-08-12T07:55:41;8.50;;;6.80;;
47429;SDS011;33181;49.246;7.372;2023-08-12T07:58:08;10.87;;;7.70;;
47429;SDS011;33181;49.246;7.372;2023-08-12T08:00:34;9.87;;;7.20;;
47429;SDS011;33181;49.246;7.372;2023-08-12T08:02:59;9.30;;;6.87;;
47429;SDS011;33181;49.246;7.372;2023-08-12T08:05:25;8.93;;;7.03;;
47429;SDS011;33181;49.246;7.372;2023-08-12T08:07:51;9.83;;;6.73;;
47429;SDS011;33181;49.246;7.372;2023-08-12T08:10:17;8.40;;;7.10;;
47429;SDS011;33181;49.246;7.372;2023-08-12T08:12:42;8.20;;;6.20;;
47429;SDS011;33181;49.246;7.372;2023-08-12T08:15:08;9.83;;;6.70;;
47429;SDS011;33181;49.246;7.372;2023-08-12T08:17:34;7.60;;;6.40;;
47429;SDS011;33181;49.246;7.372;2023-08-12T08:20:00;8.20;;;5.60;;
47429;SDS011;33181;49.246;7.372;2023-08-12T08:22:26;7.93;;;6.17;;
47429;SDS011;33181;49.246;7.372;2023-08-12T08:24:52;11.20;;;6.40;;
47429;SDS011;33181;49.246;7.372;2023-08-12T08:27:17;8.70;;;5.90;;
47429;SDS011;33181;49.246;7.372;2023-08-12T08:29:43;8.47;;;5.80;;
47429;SDS011;33181;49.246;7.372;2023-08-12T08:32:10;7.90;;;5.80;;
47429;SDS011;33181;49.246;7.372;2023-08-12T08:34:36;7.60;;;6.10;;
47429;SDS011;33181;49.246;7.372;2023-08-12T08:37:01;6.37;;;5.60;;
47429;SDS011;33181;49.246;7.372;2023-08-12T08:39:27;7.77;;;5.90;;
47429;SDS011;33181;49.246;7.372;2023-08-12T08:41:53;7.37;;;5.50;;
47429;SDS011;33181;49.246;7.372;2023-08-12T08:44:21;6.60;;;5.70;;
47429;SDS011;33181;49.246;7.372;2023-08-12T08:46:52;6.87;;;5.83;;
47429;SDS011;33181;49.246;7.372;2023-08-12T08:49:21;7.70;;;5.87;;
47429;SDS011;33181;49.246;7.372;2023-08-12T08:51:47;7.97;;;5.87;;
47429;SDS011;33181;49.246;7.372;2023-08-12T08:54:14;8.80;;;6.20;;
47429;SDS011;33181;49.246;7.372;2023-08-12T08:56:40;7.67;;;5.47;;
47429;SDS011;33181;49.246;7.372;2023-08-12T08:59:07;7.70;;;5.80;;
47429;SDS011;33181;49.246;7.372;2023-08-12T09:01:33;8.33;;;6.50;;
47429;SDS011;33181;49.246;7.372;2023-08-12T09:04:02;8.07;;;6.70;;
47429;SDS011;33181;49.246;7.372;2023-08-12T09:06:29;7.30;;;6.23;;
47429;SDS011;33181;49.246;7.372;2023-08-12T09:08:55;8.53;;;5.90;;
47429;SDS011;33181;49.246;7.372;2023-08-12T09:11:22;7.80;;;6.43;;
47429;SDS011;33181;49.246;7.372;2023-08-12T09:13:48;7.03;;;6.20;;
47429;SDS011;33181;49.246;7.372;2023-08-12T09:16:15;6.90;;;6.07;;
47429;SDS011;33181;49.246;7.372;2023-08-12T09:18:44;9.33;;;7.10;;
47429;SDS011;33181;49.246;7.372;2023-08-12T09:21:10;7.60;;;6.53;;
47429;SDS011;33181;49.246;7.372;2023-08-12T09:23:40;9.03;;;6.70;;
47429;SDS011;33181;49.246;7.372;2023-08-12T09:26:14;7.50;;;6.13;;
47429;SDS011;33181;49.246;7.372;2023-08-12T09:28:46;7.50;;;6.07;;
47429;SDS011;33181;49.246;7.372;2023-08-12T09:31:26;7.30;;;5.50;;
47429;SDS011;33181;49.246;7.372;2023-08-12T09:33:57;7.23;;;5.90;;
47429;SDS011;33181;49.246;7.372;2023-08-12T09:36:32;8.30;;;5.90;;
47429;SDS011;33181;49.246;7.372;2023-08-12T09:38:59;8.73;;;6.00;;
47429;SDS011;33181;49.246;7.372;2023-08-12T09:41:28;7.40;;;5.57;;
47429;SDS011;33181;49.246;7.372;2023-08-12T09:43:55;6.93;;;5.47;;
47429;SDS011;33181;49.246;7.372;2023-08-12T09:46:22;8.33;;;5.50;;
47429;SDS011;33181;49.246;7.372;2023-08-12T09:48:51;6.60;;;5.50;;
47429;SDS011;33181;49.246;7.372;2023-08-12T09:51:20;8.80;;;6.13;;
47429;SDS011;33181;49.246;7.372;2023-08-12T09:53:47;9.03;;;5.83;;
47429;SDS011;33181;49.246;7.372;2023-08-12T09:56:14;7.93;;;5.57;;
47429;SDS011;33181;49.246;7.372;2023-08-12T09:58:46;8.30;;;6.50;;
47429;SDS011;33181;49.246;7.372;2023-08-12T10:01:15;7.97;;;6.00;;
47429;SDS011;33181;49.246;7.372;2023-08-12T10:03:46;9.77;;;6.30;;
47429;SDS011;33181;49.246;7.372;2023-08-12T10:06:18;8.77;;;7.00;;
47429;SDS011;33181;49.246;7.372;2023-08-12T10:08:45;7.53;;;6.30;;
47429;SDS011;33181;49.246;7.372;2023-08-12T10:11:12;6.73;;;5.70;;
47429;SDS011;33181;49.246;7.372;2023-08-12T10:13:40;9.47;;;6.17;;
47429;SDS011;33181;49.246;7.372;2023-08-12T10:16:06;8.40;;;5.90;;
47429;SDS011;33181;49.246;7.372;2023-08-12T10:18:34;7.90;;;6.30;;
47429;SDS011;33181;49.246;7.372;2023-08-12T10:21:04;7.50;;;6.20;;
47429;SDS011;33181;49.246;7.372;2023-08-12T10:23:34;7.17;;;5.73;;
47429;SDS011;33181;49.246;7.372;2023-08-12T10:26:00;7.70;;;6.47;;
47429;SDS011;33181;49.246;7.372;2023-08-12T10:28:30;9.40;;;6.67;;
47429;SDS011;33181;49.246;7.372;2023-08-12T10:31:01;8.47;;;5.63;;
47429;SDS011;33181;49.246;7.372;2023-08-12T10:33:29;7.70;;;5.97;;
47429;SDS011;33181;49.246;7.372;2023-08-12T10:35:59;12.03;;;6.33;;
47429;SDS011;33181;49.246;7.372;2023-08-12T10:38:25;8.57;;;6.17;;
47429;SDS011;33181;49.246;7.372;2023-08-12T10:40:51;9.43;;;6.50;;
47429;SDS011;33181;49.246;7.372;2023-08-12T10:43:17;8.30;;;6.60;;
47429;SDS011;33181;49.246;7.372;2023-08-12T10:45:47;8.33;;;6.60;;
47429;SDS011;33181;49.246;7.372;2023-08-12T10:48:18;7.27;;;6.30;;
47429;SDS011;33181;49.246;7.372;2023-08-12T10:50:48;9.70;;;7.20;;
47429;SDS011;33181;49.246;7.372;2023-08-12T10:53:27;8.13;;;6.30;;
47429;SDS011;33181;49.246;7.372;2023-08-12T10:56:01;8.93;;;5.43;;
47429;SDS011;33181;49.246;7.372;2023-08-12T10:58:30;6.93;;;5.23;;
47429;SDS011;33181;49.246;7.372;2023-08-12T11:01:11;6.70;;;4.27;;
47429;SDS011;33181;49.246;7.372;2023-08-12T11:03:42;6.63;;;4.43;;
47429;SDS011;33181;49.246;7.372;2023-08-12T11:06:11;6.27;;;4.47;;
47429;SDS011;33181;49.246;7.372;2023-08-12T11:08:45;5.80;;;3.70;;
47429;SDS011;33181;49.246;7.372;2023-08-12T11:11:24;6.57;;;3.67;;
47429;SDS011;33181;49.246;7.372;2023-08-12T11:13:56;4.90;;;3.70;;
47429;SDS011;33181;49.246;7.372;2023-08-12T11:16:32;6.83;;;3.80;;
47429;SDS011;33181;49.246;7.372;2023-08-12T11:19:02;5.20;;;4.07;;
47429;SDS011;33181;49.246;7.372;2023-08-12T11:21:29;6.40;;;4.13;;
47429;SDS011;33181;49.246;7.372;2023-08-12T11:23:55;5.10;;;3.60;;
47429;SDS011;33181;49.246;7.372;2023-08-12T11:26:23;5.50;;;3.50;;
47429;SDS011;33181;49.246;7.372;2023-08-12T11:28:49;6.30;;;3.90;;
47429;SDS011;33181;49.246;7.372;2023-08-12T11:31:15;4.57;;;3.50;;
47429;SDS011;33181;49.246;7.372;2023-08-12T11:33:44;5.50;;;3.80;;
47429;SDS011;33181;49.246;7.372;2023-08-12T11:36:10;5.50;;;3.77;;
47429;SDS011;33181;49.246;7.372;2023-08-12T11:38:37;5.70;;;3.50;;
47429;SDS011;33181;49.246;7.372;2023-08-12T11:41:03;5.10;;;3.80;;
47429;SDS011;33181;49.246;7.372;2023-08-12T11:43:29;5.50;;;3.97;;
47429;SDS011;33181;49.246;7.372;2023-08-12T11:45:57;7.40;;;3.53;;
47429;SDS011;33181;49.246;7.372;2023-08-12T11:48:26;5.47;;;3.40;;
47429;SDS011;33181;49.246;7.372;2023-08-12T11:50:52;4.40;;;3.00;;
47429;SDS011;33181;49.246;7.372;2023-08-12T11:53:19;5.47;;;3.20;;
47429;SDS011;33181;49.246;7.372;2023-08-12T11:55:45;8.23;;;3.60;;
47429;SDS011;33181;49.246;7.372;2023-08-12T11:58:13;8.90;;;3.57;;
47429;SDS011;33181;49.246;7.372;2023-08-12T12:00:43;5.23;;;3.63;;
47429;SDS011;33181;49.246;7.372;2023-08-12T12:03:11;5.50;;;3.73;;
47429;SDS011;33181;49.246;7.372;2023-08-12T12:05:37;4.90;;;3.40;;
47429;SDS011;33181;49.246;7.372;2023-08-12T12:08:03;5.87;;;4.00;;
47429;SDS011;33181;49.246;7.372;2023-08-12T12:10:33;4.90;;;3.93;;
47429;SDS011;33181;49.246;7.372;2023-08-12T12:13:01;6.60;;;4.10;;
47429;SDS011;33181;49.246;7.372;2023-08-12T12:15:30;5.60;;;3.90;;
47429;SDS011;33181;49.246;7.372;2023-08-12T12:17:58;7.63;;;4.07;;
47429;SDS011;33181;49.246;7.372;2023-08-12T12:20:24;6.23;;;4.37;;
47429;SDS011;33181;49.246;7.372;2023-08-12T12:22:52;6.50;;;4.00;;
47429;SDS011;33181;49.246;7.372;2023-08-12T12:25:18;5.27;;;4.20;;
47429;SDS011;33181;49.246;7.372;2023-08-12T12:27:45;6.77;;;4.77;;
47429;SDS011;33181;49.246;7.372;2023-08-12T12:30:12;6.77;;;4.43;;
47429;SDS011;33181;49.246;7.372;2023-08-12T12:32:40;5.80;;;4.50;;
47429;SDS011;33181;49.246;7.372;2023-08-12T12:35:06;6.33;;;4.53;;
47429;SDS011;33181;49.246;7.372;2023-08-12T12:37:32;6.10;;;3.73;;
47429;SDS011;33181;49.246;7.372;2023-08-12T12:39:59;6.07;;;4.10;;
47429;SDS011;33181;49.246;7.372;2023-08-12T12:42:25;5.40;;;3.70;;
47429;SDS011;33181;49.246;7.372;2023-08-12T12:44:53;4.87;;;3.33;;
47429;SDS011;33181;49.246;7.372;2023-08-12T12:47:19;4.77;;;3.17;;
47429;SDS011;33181;49.246;7.372;2023-08-12T12:49:45;4.97;;;3.43;;
47429;SDS011;33181;49.246;7.372;2023-08-12T12:52:11;5.77;;;3.43;;
47429;SDS011;33181;49.246;7.372;2023-08-12T12:54:37;5.37;;;3.30;;
47429;SDS011;33181;49.246;7.372;2023-08-12T12:57:03;4.97;;;3.47;;
47429;SDS011;33181;49.246;7.372;2023-08-12T12:59:29;4.73;;;3.00;;
47429;SDS011;33181;49.246;7.372;2023-08-12T13:01:56;4.63;;;3.03;;
47429;SDS011;33181;49.246;7.372;2023-08-12T13:04:22;4.53;;;3.13;;
47429;SDS011;33181;49.246;7.372;2023-08-12T13:06:48;4.83;;;3.10;;
47429;SDS011;33181;49.246;7.372;2023-08-12T13:09:13;5.20;;;3.20;;
47429;SDS011;33181;49.246;7.372;2023-08-12T13:11:39;4.33;;;3.00;;
47429;SDS011;33181;49.246;7.372;2023-08-12T13:14:05;4.20;;;3.00;;
47429;SDS011;33181;49.246;7.372;2023-08-12T13:16:31;4.20;;;3.13;;
47429;SDS011;33181;49.246;7.372;2023-08-12T13:18:57;4.70;;;3.10;;
47429;SDS011;33181;49.246;7.372;2023-08-12T13:21:26;4.30;;;3.10;;
47429;SDS011;33181;49.246;7.372;2023-08-12T13:23:52;5.00;;;3.33;;
47429;SDS011;33181;49.246;7.372;2023-08-12T13:26:20;4.30;;;3.20;;
47429;SDS011;33181;49.246;7.372;2023-08-12T13:28:46;7.23;;;3.20;;
47429;SDS011;33181;49.246;7.372;2023-08-12T13:31:13;6.33;;;3.00;;
47429;SDS011;33181;49.246;7.372;2023-08-12T13:33:40;5.60;;;3.13;;
47429;SDS011;33181;49.246;7.372;2023-08-12T13:36:06;4.50;;;3.00;;
47429;SDS011;33181;49.246;7.372;2023-08-12T13:38:32;6.00;;;3.10;;
47429;SDS011;33181;49.246;7.372;2023-08-12T13:40:57;5.77;;;3.43;;
47429;SDS011;33181;49.246;7.372;2023-08-12T13:43:23;6.37;;;3.20;;
47429;SDS011;33181;49.246;7.372;2023-08-12T13:45:50;5.23;;;3.10;;
47429;SDS011;33181;49.246;7.372;2023-08-12T13:48:15;4.73;;;3.30;;
47429;SDS011;33181;49.246;7.372;2023-08-12T13:50:41;4.90;;;3.60;;
47429;SDS011;33181;49.246;7.372;2023-08-12T13:53:07;5.43;;;3.37;;
47429;SDS011;33181;49.246;7.372;2023-08-12T13:55:33;4.60;;;3.50;;
47429;SDS011;33181;49.246;7.372;2023-08-12T13:57:58;5.30;;;3.50;;
47429;SDS011;33181;49.246;7.372;2023-08-12T14:00:24;7.07;;;3.77;;
47429;SDS011;33181;49.246;7.372;2023-08-12T14:02:50;6.13;;;3.87;;
47429;SDS011;33181;49.246;7.372;2023-08-12T14:05:16;8.30;;;4.30;;
47429;SDS011;33181;49.246;7.372;2023-08-12T14:07:42;6.97;;;4.73;;
47429;SDS011;33181;49.246;7.372;2023-08-12T14:10:08;6.67;;;4.57;;
47429;SDS011;33181;49.246;7.372;2023-08-12T14:12:34;7.00;;;4.80;;
47429;SDS011;33181;49.246;7.372;2023-08-12T14:15:00;7.37;;;4.70;;
47429;SDS011;33181;49.246;7.372;2023-08-12T14:17:26;8.10;;;4.87;;
47429;SDS011;33181;49.246;7.372;2023-08-12T14:19:52;6.87;;;4.43;;
47429;SDS011;33181;49.246;7.372;2023-08-12T14:22:20;6.73;;;4.50;;
47429;SDS011;33181;49.246;7.372;2023-08-12T14:24:46;7.20;;;5.07;;
47429;SDS011;33181;49.246;7.372;2023-08-12T14:27:15;5.97;;;4.50;;
47429;SDS011;33181;49.246;7.372;2023-08-12T14:29:43;8.00;;;4.30;;
47429;SDS011;33181;49.246;7.372;2023-08-12T14:32:09;7.10;;;4.50;;
47429;SDS011;33181;49.246;7.372;2023-08-12T14:34:35;6.50;;;3.83;;
47429;SDS011;33181;49.246;7.372;2023-08-12T14:37:02;8.20;;;4.57;;
47429;SDS011;33181;49.246;7.372;2023-08-12T14:39:28;9.57;;;4.33;;